Time;durP1;ratioP1;P1;durP2;ratioP2;P2;SDS_P1;SDS_P2;PMS_P1;PMS_P2;Temp;Humidity;BMP_temperature;BMP_pressure;BME280_temperature;BME280_humidity;BME280_pressure;Samples;Min_cycle;Max_cycle;Signal;HPM_P1;HPM_P2
2023/06/29 00:00:38;;;;;;;47.70;23.60;;;;;;;;;;2524524;23;20065;-73
2023/06/29 00:01:59;;;;;;;41.50;22.48;;;;;;;;;;2530171;23;20446;-74
2023/06/29 00:03:20;;;;;;;39.67;20.92;;;;;;;;;;2519262;23;20006;-73
2023/06/29 00:04:41;;;;;;;38.05;19.60;;;;;;;;;;2526155;23;20010;-73
2023/06/29 00:06:02;;;;;;;35.25;20.38;;;;;;;;;;2520142;23;20460;-74
2023/06/29 00:07:25;;;;;;;36.90;21.05;;;;;;;;;;2513138;23;20014;-74
2023/06/29 00:08:48;;;;;;;40.58;21.50;;;;;;;;;;2527572;23;20006;-74
2023/06/29 00:10:09;;;;;;;40.28;20.85;;;;;;;;;;2530237;23;20069;-73
2023/06/29 00:11:30;;;;;;;39.67;21.25;;;;;;;;;;2527728;23;20014;-74
2023/06/29 00:12:52;;;;;;;42.22;22.45;;;;;;;;;;2516612;23;20013;-73
2023/06/29 00:14:12;;;;;;;40.15;21.60;;;;;;;;;;2524952;23;20276;-74
2023/06/29 00:15:33;;;;;;;41.13;22.17;;;;;;;;;;2530161;23;20448;-73
2023/06/29 00:16:55;;;;;;;42.47;22.48;;;;;;;;;;2530845;23;20010;-73
2023/06/29 00:18:18;;;;;;;40.03;21.08;;;;;;;;;;2532005;23;20018;-73
2023/06/29 00:19:38;;;;;;;37.80;23.05;;;;;;;;;;2530365;23;20013;-74
2023/06/29 00:21:01;;;;;;;38.83;21.02;;;;;;;;;;2516159;23;20007;-74
2023/06/29 00:22:21;;;;;;;;;;;;;;;;;;2527028;23;20010;-74
2023/06/29 00:23:42;;;;;;;40.08;21.73;;;;;;;;;;2529754;23;19911;-73
2023/06/29 00:25:04;;;;;;;31.05;18.45;;;;;;;;;;2519025;23;20011;-74
2023/06/29 00:26:29;;;;;;;39.53;20.83;;;;;;;;;;2525950;23;20006;-74
2023/06/29 00:27:49;;;;;;;37.65;20.05;;;;;;;;;;2520479;23;20065;-73
2023/06/29 00:29:10;;;;;;;35.00;20.48;;;;;;;;;;2526987;23;20458;-74
2023/06/29 00:30:31;;;;;;;39.72;21.15;;;;;;;;;;2528593;23;20021;-73
2023/06/29 00:31:52;;;;;;;39.88;20.73;;;;;;;;;;2529732;23;20534;-74
2023/06/29 00:33:13;;;;;;;35.38;19.65;;;;;;;;;;2530080;23;20006;-73
2023/06/29 00:34:34;;;;;;;34.13;18.77;;;;;;;;;;2530174;23;20010;-74
2023/06/29 00:35:55;;;;;;;33.60;18.80;;;;;;;;;;2529871;23;20017;-73
2023/06/29 00:37:16;;;;;;;32.72;20.38;;;;;;;;;;2529312;23;20389;-74
2023/06/29 00:38:37;;;;;;;34.38;19.38;;;;;;;;;;2519736;23;20014;-74
2023/06/29 00:39:57;;;;;;;36.75;19.65;;;;;;;;;;2512023;23;20030;-74
2023/06/29 00:41:18;;;;;;;38.05;21.27;;;;;;;;;;2511644;23;20014;-74
2023/06/29 00:42:39;;;;;;;40.85;21.05;;;;;;;;;;2526023;23;20289;-74
2023/06/29 00:44:00;;;;;;;34.95;20.13;;;;;;;;;;2531083;23;20068;-74
2023/06/29 00:45:21;;;;;;;38.65;19.75;;;;;;;;;;2530726;23;20044;-74
2023/06/29 00:46:42;;;;;;;39.08;20.27;;;;;;;;;;2530705;23;20014;-74
2023/06/29 00:48:03;;;;;;;40.50;21.30;;;;;;;;;;2520012;23;20014;-74
2023/06/29 00:49:24;;;;;;;39.20;21.40;;;;;;;;;;2527077;23;20360;-74
2023/06/29 00:50:45;;;;;;;36.33;20.10;;;;;;;;;;2529418;23;20021;-73
2023/06/29 00:52:06;;;;;;;38.40;21.15;;;;;;;;;;2530770;23;20355;-74
2023/06/29 00:53:27;;;;;;;39.58;19.83;;;;;;;;;;2519057;23;20018;-73
2023/06/29 00:54:48;;;;;;;37.88;19.73;;;;;;;;;;2527778;23;20053;-74
2023/06/29 00:56:08;;;;;;;35.50;19.77;;;;;;;;;;2531206;23;20010;-72
2023/06/29 00:57:29;;;;;;;45.42;21.75;;;;;;;;;;2518500;23;20007;-72
2023/06/29 00:58:50;;;;;;;44.00;21.65;;;;;;;;;;2527733;23;20014;-73
2023/06/29 01:00:15;;;;;;;41.17;20.92;;;;;;;;;;2519928;23;20015;-74
2023/06/29 01:01:39;;;;;;;38.53;19.95;;;;;;;;;;2514113;23;20011;-73
2023/06/29 08:42:17;;;;;;;39.72;17.50;;;;;;;;;;2516712;23;20022;-83
2023/06/29 08:44:13;;;;;;;27.73;15.00;;;;;;;;;;2500541;23;20018;-81
2023/06/29 08:52:22;;;;;;;32.90;15.27;;;;;;;;;;2519027;23;20006;-79
2023/06/29 08:55:29;;;;;;;32.45;18.58;;;;;;;;;;2517623;23;20022;-80
2023/06/29 09:19:09;;;;;;;35.20;16.23;;;;;;;;;;2460549;24;20446;-79
2023/06/29 09:20:53;;;;;;;34.58;16.52;;;;;;;;;;2460648;24;20012;-80
2023/06/29 09:24:49;;;;;;;;;;;;;;;;;;;;;
2023/06/29 09:28:08;;;;;;;29.38;15.32;;;;;;;;;;2461221;24;20008;-82
2023/06/29 09:29:32;;;;;;;32.22;15.10;;;;;;;;;;2472119;23;20023;-80
2023/06/29 09:33:11;;;;;;;29.83;15.00;;;;;;;;;;2462331;24;20100;-79
2023/06/29 09:40:47;;;;;;;29.85;15.23;;;;;;;;;;2415221;24;20052;-82
2023/06/29 09:42:09;;;;;;;28.90;14.82;;;;;;;;;;2449747;24;20505;-84
2023/06/29 09:43:30;;;;;;;30.10;15.30;;;;;;;;;;2467946;23;20453;-81
2023/06/29 09:44:51;;;;;;;46.63;17.95;;;;;;;;;;2494415;23;20700;-82
2023/06/29 09:46:12;;;;;;;31.52;15.15;;;;;;;;;;2533036;23;20010;-85
2023/06/29 09:48:12;;;;;;;29.52;14.80;;;;;;;;;;2532944;23;20009;-82
2023/06/29 09:49:47;;;;;;;30.75;16.02;;;;;;;;;;2532038;23;20021;-82
2023/06/29 09:51:18;;;;;;;29.65;14.70;;;;;;;;;;2519529;23;20022;-81
2023/06/29 09:53:11;;;;;;;27.85;14.90;;;;;;;;;;2519034;23;20066;-81
2023/06/29 09:54:38;;;;;;;51.50;20.35;;;;;;;;;;2503187;23;20014;-78
2023/06/29 09:56:01;;;;;;;24.77;13.80;;;;;;;;;;2506410;23;20066;-84
2023/06/29 09:57:42;;;;;;;28.98;15.13;;;;;;;;;;2505335;23;20019;-79
2023/06/29 09:59:03;;;;;;;27.05;15.25;;;;;;;;;;2519604;23;20011;-79
2023/06/29 11:36:43;;;;;;;42.10;19.17;;;;;;;;;;2524146;23;20344;-79
2023/06/29 11:40:29;;;;;;;37.13;18.15;;;;;;;;;;2532941;23;20006;-76
2023/06/29 11:41:55;;;;;;;37.88;17.13;;;;;;;;;;2531139;23;20019;-77
2023/06/29 11:45:20;;;;;;;52.55;26.02;;;;;;;;;;2478294;23;20015;-77
2023/06/29 11:46:42;;;;;;;37.72;18.33;;;;;;;;;;2530512;23;20052;-77
2023/06/29 11:48:15;;;;;;;31.90;16.83;;;;;;;;;;2530512;23;20027;-78
2023/06/29 11:49:36;;;;;;;38.90;18.75;;;;;;;;;;2532157;23;20010;-78
2023/06/29 11:50:59;;;;;;;32.50;17.50;;;;;;;;;;2532370;23;20006;-79
2023/06/29 11:52:20;;;;;;;36.90;18.65;;;;;;;;;;2518881;23;20356;-76
2023/06/29 11:53:58;;;;;;;35.78;17.83;;;;;;;;;;2515062;23;20018;-77
2023/06/29 11:55:19;;;;;;;37.97;18.27;;;;;;;;;;2531739;23;20017;-75
2023/06/29 12:01:16;;;;;;;42.80;20.27;;;;;;;;;;2531438;23;20006;-79
2023/06/29 12:03:07;;;;;;;42.08;20.05;;;;;;;;;;2495017;23;20337;-77
2023/06/29 12:08:37;;;;;;;36.25;19.40;;;;;;;;;;2528350;23;20013;-77
2023/06/29 12:10:01;;;;;;;42.10;20.83;;;;;;;;;;2520852;23;20010;-79
2023/06/29 12:11:25;;;;;;;35.90;19.40;;;;;;;;;;2527629;23;20025;-79
2023/06/29 12:14:34;;;;;;;45.20;21.08;;;;;;;;;;2531418;23;20013;-79
2023/06/29 12:16:01;;;;;;;44.83;22.90;;;;;;;;;;2516974;23;20015;-78
2023/06/29 12:17:43;;;;;;;38.50;19.73;;;;;;;;;;2516797;23;20015;-80
2023/06/29 12:19:16;;;;;;;40.85;19.33;;;;;;;;;;2529614;23;20014;-77
2023/06/29 12:20:45;;;;;;;42.15;21.45;;;;;;;;;;2532670;23;20022;-79
2023/06/29 12:22:14;;;;;;;43.67;21.77;;;;;;;;;;2519158;23;20058;-78
2023/06/29 12:23:35;;;;;;;44.53;21.88;;;;;;;;;;2530880;23;20363;-79
2023/06/29 12:24:56;;;;;;;41.42;20.77;;;;;;;;;;2533682;23;20014;-80
2023/06/29 12:26:17;;;;;;;47.33;21.15;;;;;;;;;;2530477;23;20014;-73
2023/06/29 12:27:45;;;;;;;45.90;23.70;;;;;;;;;;2531453;23;20014;-77
2023/06/29 12:29:07;;;;;;;42.80;24.27;;;;;;;;;;2531725;23;20021;-75
2023/06/29 12:30:45;;;;;;;;;;;;;;;;;;2542272;23;20081;-78
2023/06/29 12:32:11;;;;;;;42.45;21.77;;;;;;;;;;2530403;23;19904;-75
2023/06/29 12:33:35;;;;;;;45.08;22.20;;;;;;;;;;2528837;23;20069;-76
2023/06/29 12:34:58;;;;;;;41.22;22.05;;;;;;;;;;2529904;23;20439;-75
2023/06/29 12:36:19;;;;;;;44.58;24.45;;;;;;;;;;2526911;23;20041;-76
2023/06/29 12:37:40;;;;;;;41.80;23.00;;;;;;;;;;2540687;23;20016;-75
2023/06/29 12:39:01;;;;;;;44.28;22.15;;;;;;;;;;2532735;23;20016;-75
2023/06/29 12:40:25;;;;;;;48.92;25.33;;;;;;;;;;2529965;23;20416;-75
2023/06/29 12:41:46;;;;;;;40.65;22.70;;;;;;;;;;2529393;23;20010;-75
2023/06/29 12:43:07;;;;;;;42.42;21.80;;;;;;;;;;2527346;23;20213;-74
2023/06/29 12:44:28;;;;;;;42.33;21.88;;;;;;;;;;2531557;23;20045;-76
2023/06/29 12:45:49;;;;;;;55.57;29.93;;;;;;;;;;2527101;23;20341;-75
2023/06/29 12:47:10;;;;;;;48.28;24.98;;;;;;;;;;2529147;23;20385;-76
2023/06/29 12:48:31;;;;;;;43.30;23.42;;;;;;;;;;2528222;23;20392;-77
2023/06/29 12:49:52;;;;;;;46.30;22.67;;;;;;;;;;2541570;23;20336;-76
2023/06/29 12:51:13;;;;;;;47.60;25.08;;;;;;;;;;2532528;23;20428;-76
2023/06/29 12:52:34;;;;;;;48.25;23.77;;;;;;;;;;2541749;23;20009;-76
2023/06/29 12:53:58;;;;;;;49.17;25.52;;;;;;;;;;2531361;23;20014;-76
2023/06/29 12:55:22;;;;;;;46.92;25.00;;;;;;;;;;2528166;23;20010;-77
2023/06/29 12:56:43;;;;;;;49.40;24.88;;;;;;;;;;2540957;23;20485;-76
2023/06/29 12:58:07;;;;;;;40.60;22.70;;;;;;;;;;2530891;23;20017;-76
2023/06/29 12:59:28;;;;;;;47.60;26.08;;;;;;;;;;2528138;23;20082;-76
2023/06/29 13:00:49;;;;;;;48.45;26.38;;;;;;;;;;2528923;23;20009;-76
2023/06/29 13:02:13;;;;;;;47.72;25.17;;;;;;;;;;2529271;23;20022;-75
2023/06/29 13:03:37;;;;;;;44.33;23.13;;;;;;;;;;2531684;23;20014;-76
2023/06/29 13:04:58;;;;;;;46.92;24.33;;;;;;;;;;2531116;23;20014;-73
2023/06/29 13:06:19;;;;;;;47.97;25.88;;;;;;;;;;2527431;23;20018;-72
2023/06/29 13:07:42;;;;;;;42.75;23.30;;;;;;;;;;2529966;23;20432;-73
2023/06/29 13:09:03;;;;;;;44.50;23.58;;;;;;;;;;2530886;23;20057;-74
2023/06/29 13:10:27;;;;;;;47.80;24.52;;;;;;;;;;2528672;23;20021;-74
2023/06/29 13:11:48;;;;;;;49.22;24.67;;;;;;;;;;2530332;23;20014;-74
2023/06/29 13:13:09;;;;;;;45.37;23.03;;;;;;;;;;2527889;23;20094;-73
2023/06/29 13:14:31;;;;;;;42.30;22.42;;;;;;;;;;2540045;23;20387;-74
2023/06/29 13:15:54;;;;;;;62.60;29.55;;;;;;;;;;2530963;23;20010;-75
2023/06/29 13:17:15;;;;;;;60.55;26.75;;;;;;;;;;2541608;23;20443;-75
2023/06/29 13:18:36;;;;;;;60.92;29.27;;;;;;;;;;2541344;23;20013;-76
2023/06/29 13:19:57;;;;;;;60.35;29.77;;;;;;;;;;2541714;23;20009;-75
2023/06/29 13:21:28;;;;;;;51.60;26.55;;;;;;;;;;2542484;23;20431;-75
2023/06/29 13:22:49;;;;;;;51.60;24.67;;;;;;;;;;2533151;23;20423;-74
2023/06/29 13:24:10;;;;;;;50.75;26.92;;;;;;;;;;2528551;23;20010;-75
2023/06/29 13:25:31;;;;;;;52.42;26.58;;;;;;;;;;2538866;23;20443;-77
2023/06/29 13:26:52;;;;;;;51.03;26.98;;;;;;;;;;2531045;23;20375;-77
2023/06/29 13:28:13;;;;;;;50.55;25.33;;;;;;;;;;2539080;23;20009;-74
2023/06/29 13:29:35;;;;;;;53.97;25.80;;;;;;;;;;2543332;23;20017;-75
2023/06/29 13:30:56;;;;;;;48.60;25.63;;;;;;;;;;2543839;23;20014;-74
2023/06/29 13:32:17;;;;;;;58.75;27.70;;;;;;;;;;2542354;23;20036;-74
2023/06/29 13:33:38;;;;;;;54.40;31.15;;;;;;;;;;2543619;23;20018;-74
2023/06/29 13:34:59;;;;;;;54.15;26.38;;;;;;;;;;2530631;23;20010;-75
2023/06/29 13:36:20;;;;;;;55.85;28.90;;;;;;;;;;2536931;23;20432;-76
2023/06/29 13:37:40;;;;;;;50.78;26.27;;;;;;;;;;2531324;23;20077;-75
2023/06/29 13:39:03;;;;;;;40.45;21.70;;;;;;;;;;2538452;23;20017;-75
2023/06/29 13:40:24;;;;;;;35.63;18.20;;;;;;;;;;2531611;23;20010;-75
2023/06/29 13:41:45;;;;;;;35.58;17.08;;;;;;;;;;2537690;23;20329;-75
2023/06/29 13:43:06;;;;;;;29.83;15.93;;;;;;;;;;2545142;23;20013;-75
2023/06/29 13:44:27;;;;;;;28.73;15.00;;;;;;;;;;2544061;23;20320;-74
2023/06/29 13:45:48;;;;;;;28.30;14.63;;;;;;;;;;2545318;23;20053;-74
2023/06/29 13:47:20;;;;;;;31.13;16.10;;;;;;;;;;2531372;23;20061;-78
2023/06/29 13:48:41;;;;;;;;;;;;;;;;;;2534421;23;20014;-75
2023/06/29 13:50:02;;;;;;;30.95;16.65;;;;;;;;;;2541917;23;20231;-75
2023/06/29 13:51:23;;;;;;;34.22;17.70;;;;;;;;;;2543110;23;20439;-74
2023/06/29 13:52:44;;;;;;;30.77;16.23;;;;;;;;;;2530617;23;20021;-76
2023/06/29 13:54:07;;;;;;;31.88;17.92;;;;;;;;;;2527611;23;20025;-74
2023/06/29 13:55:28;;;;;;;34.38;17.60;;;;;;;;;;2541787;23;20375;-75
2023/06/29 13:56:50;;;;;;;32.25;18.27;;;;;;;;;;2545001;23;20017;-75
2023/06/29 13:58:11;;;;;;;34.97;17.58;;;;;;;;;;2542760;23;20021;-76
2023/06/29 13:59:32;;;;;;;32.00;17.33;;;;;;;;;;2544611;23;20372;-77
2023/06/29 14:00:53;;;;;;;34.80;18.10;;;;;;;;;;2543098;23;20014;-76
2023/06/29 14:02:14;;;;;;;33.33;17.42;;;;;;;;;;2542489;23;20013;-75
2023/06/29 14:03:35;;;;;;;42.58;18.27;;;;;;;;;;2544002;23;20017;-75
2023/06/29 14:04:56;;;;;;;35.90;18.17;;;;;;;;;;2543250;23;20036;-74
2023/06/29 14:06:20;;;;;;;39.55;20.98;;;;;;;;;;2542925;23;20017;-74
2023/06/29 14:07:42;;;;;;;36.00;18.27;;;;;;;;;;2543823;23;20350;-74
2023/06/29 14:09:09;;;;;;;37.13;18.20;;;;;;;;;;2529280;23;20474;-73
2023/06/29 14:10:30;;;;;;;37.08;18.98;;;;;;;;;;2541497;23;20017;-74
2023/06/29 14:11:51;;;;;;;42.20;19.80;;;;;;;;;;2543041;23;20780;-74
2023/06/29 14:13:12;;;;;;;42.40;19.67;;;;;;;;;;2544031;23;20017;-74
2023/06/29 14:14:34;;;;;;;35.92;18.77;;;;;;;;;;2530705;23;20021;-74
2023/06/29 14:15:54;;;;;;;32.70;17.63;;;;;;;;;;2540638;23;20024;-74
2023/06/29 14:17:19;;;;;;;32.40;17.13;;;;;;;;;;2544883;23;20009;-74
2023/06/29 14:18:40;;;;;;;41.25;20.13;;;;;;;;;;2544354;23;20458;-75
2023/06/29 14:20:01;;;;;;;34.90;17.40;;;;;;;;;;2528108;23;20006;-76
2023/06/29 14:21:22;;;;;;;38.70;19.35;;;;;;;;;;2537445;23;20009;-76
2023/06/29 14:22:43;;;;;;;35.60;17.85;;;;;;;;;;2541981;23;20013;-77
2023/06/29 14:24:04;;;;;;;34.58;18.15;;;;;;;;;;2543045;23;20009;-76
2023/06/29 14:25:31;;;;;;;33.70;17.37;;;;;;;;;;2542578;23;20541;-75
2023/06/29 14:26:53;;;;;;;30.05;17.13;;;;;;;;;;2528653;23;20021;-74
2023/06/29 14:28:14;;;;;;;;;;;;;;;;;;2543890;23;20010;-75
2023/06/29 14:29:35;;;;;;;29.38;16.67;;;;;;;;;;2543065;23;20357;-74
2023/06/29 14:30:56;;;;;;;35.45;17.13;;;;;;;;;;2544621;23;20022;-75
2023/06/29 14:32:19;;;;;;;36.25;18.38;;;;;;;;;;2529885;23;20016;-78
2023/06/29 14:33:40;;;;;;;31.92;16.98;;;;;;;;;;2538726;23;20013;-76
2023/06/29 14:35:01;;;;;;;34.60;16.90;;;;;;;;;;2529544;23;20010;-76
2023/06/29 14:36:31;;;;;;;43.72;22.10;;;;;;;;;;2525465;23;20010;-77
2023/06/29 14:37:52;;;;;;;33.33;16.58;;;;;;;;;;2531213;23;20017;-78
2023/06/29 14:39:15;;;;;;;33.65;15.85;;;;;;;;;;2529673;23;20014;-76
2023/06/29 14:42:44;;;;;;;31.92;17.20;;;;;;;;;;2546220;23;20435;-77
2023/06/29 14:44:05;;;;;;;32.13;17.20;;;;;;;;;;2533691;23;20020;-76
2023/06/29 14:45:25;;;;;;;31.85;16.00;;;;;;;;;;2528549;23;20397;-76
2023/06/29 14:46:47;;;;;;;34.08;17.75;;;;;;;;;;2540386;23;20009;-76
2023/06/29 14:48:08;;;;;;;32.97;16.15;;;;;;;;;;2547462;23;20014;-76
2023/06/29 14:49:30;;;;;;;33.00;17.50;;;;;;;;;;2545513;23;20020;-75
2023/06/29 14:50:51;;;;;;;40.00;18.05;;;;;;;;;;2536447;23;20408;-75
2023/06/29 14:52:15;;;;;;;41.03;18.03;;;;;;;;;;2541368;23;20020;-76
2023/06/29 14:53:39;;;;;;;36.78;18.48;;;;;;;;;;2534618;23;20022;-76
2023/06/29 14:55:00;;;;;;;37.40;18.13;;;;;;;;;;2542593;23;20013;-75
2023/06/29 14:56:21;;;;;;;35.97;17.42;;;;;;;;;;2535004;23;20434;-75
2023/06/29 14:57:42;;;;;;;34.30;17.00;;;;;;;;;;2541943;23;20018;-76
2023/06/29 14:59:03;;;;;;;34.13;16.55;;;;;;;;;;2532381;23;20010;-76
2023/06/29 15:00:24;;;;;;;35.67;16.90;;;;;;;;;;2531162;23;20426;-76
2023/06/29 15:01:49;;;;;;;32.22;16.52;;;;;;;;;;2544106;23;20009;-76
2023/06/29 15:03:11;;;;;;;35.20;16.50;;;;;;;;;;2534815;23;20399;-75
2023/06/29 15:04:31;;;;;;;34.20;15.90;;;;;;;;;;2531576;23;20036;-76
2023/06/29 15:05:52;;;;;;;32.72;17.52;;;;;;;;;;2533209;23;20021;-76
2023/06/29 15:07:21;;;;;;;35.33;16.73;;;;;;;;;;2538406;23;20024;-76
2023/06/29 15:08:41;;;;;;;35.25;16.80;;;;;;;;;;2532576;23;20021;-75
2023/06/29 15:10:02;;;;;;;32.58;16.40;;;;;;;;;;2535858;23;20014;-75
2023/06/29 15:11:25;;;;;;;32.92;15.75;;;;;;;;;;2543869;23;20021;-76
2023/06/29 15:12:46;;;;;;;29.73;15.23;;;;;;;;;;2531315;23;20017;-75
2023/06/29 15:14:07;;;;;;;28.88;15.40;;;;;;;;;;2538794;23;20021;-75
2023/06/29 15:15:28;;;;;;;29.33;15.40;;;;;;;;;;2532011;23;20006;-76
2023/06/29 15:16:49;;;;;;;33.90;16.92;;;;;;;;;;2541887;23;20020;-76
2023/06/29 15:18:10;;;;;;;27.85;15.35;;;;;;;;;;2534735;23;20012;-76
2023/06/29 15:19:31;;;;;;;26.90;14.50;;;;;;;;;;2531519;23;20005;-76
2023/06/29 15:20:52;;;;;;;31.80;15.50;;;;;;;;;;2527968;23;20204;-76
2023/06/29 15:22:13;;;;;;;29.15;15.40;;;;;;;;;;2533709;23;20392;-76
2023/06/29 15:23:34;;;;;;;28.52;14.80;;;;;;;;;;2528632;23;20013;-76
2023/06/29 15:24:55;;;;;;;30.27;16.33;;;;;;;;;;2529177;23;20018;-76
2023/06/29 15:26:17;;;;;;;26.50;14.30;;;;;;;;;;2533717;23;20010;-76
2023/06/29 15:27:38;;;;;;;29.75;15.68;;;;;;;;;;2530276;23;20022;-76
2023/06/29 15:28:59;;;;;;;32.83;16.07;;;;;;;;;;2527893;23;20014;-76
2023/06/29 15:30:20;;;;;;;30.67;15.27;;;;;;;;;;2528286;23;20928;-75
2023/06/29 15:31:42;;;;;;;28.25;15.50;;;;;;;;;;2540683;23;20017;-76
2023/06/29 15:33:03;;;;;;;27.67;14.18;;;;;;;;;;2535852;23;20016;-76
2023/06/29 15:34:25;;;;;;;29.52;15.65;;;;;;;;;;2530288;23;20014;-79
2023/06/29 15:35:46;;;;;;;27.98;14.57;;;;;;;;;;2542611;23;20009;-77
2023/06/29 15:37:10;;;;;;;23.58;13.23;;;;;;;;;;2533781;23;20017;-79
2023/06/29 15:38:31;;;;;;;26.33;13.93;;;;;;;;;;2545126;23;20371;-79
2023/06/29 15:39:53;;;;;;;32.45;16.02;;;;;;;;;;2533422;23;20010;-78
2023/06/29 15:41:14;;;;;;;27.08;15.10;;;;;;;;;;2530640;23;20013;-78
2023/06/29 15:42:35;;;;;;;29.27;14.43;;;;;;;;;;2530942;23;20033;-78
2023/06/29 15:44:00;;;;;;;30.77;14.25;;;;;;;;;;2530044;23;20321;-79
2023/06/29 15:45:21;;;;;;;30.40;13.55;;;;;;;;;;2543111;23;20005;-79
2023/06/29 15:46:51;;;;;;;30.15;15.05;;;;;;;;;;2544173;23;20006;-78
2023/06/29 15:48:14;;;;;;;26.95;13.32;;;;;;;;;;2547271;23;20014;-79
2023/06/29 15:49:35;;;;;;;25.58;13.70;;;;;;;;;;2534932;23;20020;-79
2023/06/29 15:50:56;;;;;;;27.42;13.68;;;;;;;;;;2530872;23;19986;-80
2023/06/29 15:52:17;;;;;;;25.05;13.60;;;;;;;;;;2532192;23;20006;-79
2023/06/29 15:53:38;;;;;;;29.67;14.07;;;;;;;;;;2541625;23;20013;-79
2023/06/29 15:54:59;;;;;;;27.85;14.30;;;;;;;;;;2545997;23;20014;-79
2023/06/29 15:56:20;;;;;;;26.88;13.73;;;;;;;;;;2532295;23;20007;-76
2023/06/29 15:57:42;;;;;;;24.55;13.38;;;;;;;;;;2541516;23;20443;-77
2023/06/29 15:59:03;;;;;;;26.50;13.27;;;;;;;;;;2547192;23;20006;-77
2023/06/29 16:00:24;;;;;;;28.00;14.30;;;;;;;;;;2532147;23;19997;-76
2023/06/29 16:01:46;;;;;;;30.42;14.57;;;;;;;;;;2541330;23;20002;-77
2023/06/29 16:03:07;;;;;;;35.92;16.48;;;;;;;;;;2531944;23;20363;-77
2023/06/29 16:04:28;;;;;;;33.03;16.05;;;;;;;;;;2526738;23;20415;-78
2023/06/29 16:05:49;;;;;;;28.85;13.63;;;;;;;;;;2530249;23;20021;-78
2023/06/29 16:07:10;;;;;;;30.95;14.50;;;;;;;;;;2528593;23;20014;-79
2023/06/29 16:08:31;;;;;;;29.02;14.27;;;;;;;;;;2538595;23;20036;-79
2023/06/29 16:09:52;;;;;;;30.17;14.80;;;;;;;;;;2533261;23;20029;-79
2023/06/29 16:11:12;;;;;;;31.85;15.20;;;;;;;;;;2542441;23;20028;-79
2023/06/29 16:12:33;;;;;;;27.02;15.02;;;;;;;;;;2546328;23;20010;-79
2023/06/29 16:13:54;;;;;;;32.70;15.55;;;;;;;;;;2532041;23;20442;-80
2023/06/29 16:15:16;;;;;;;32.70;15.93;;;;;;;;;;2528165;23;20014;-79
2023/06/29 16:16:37;;;;;;;31.95;15.68;;;;;;;;;;2537779;23;20219;-79
2023/06/29 16:17:58;;;;;;;33.67;15.00;;;;;;;;;;2544786;23;20017;-79
2023/06/29 16:19:19;;;;;;;36.10;16.83;;;;;;;;;;2531907;23;20738;-79
2023/06/29 16:20:43;;;;;;;36.58;17.42;;;;;;;;;;2535680;23;20419;-79
2023/06/29 16:22:04;;;;;;;27.02;14.18;;;;;;;;;;2536074;23;20094;-80
2023/06/29 16:23:24;;;;;;;32.13;15.20;;;;;;;;;;2533707;23;20010;-79
2023/06/29 16:24:45;;;;;;;30.95;15.13;;;;;;;;;;2540311;23;20013;-80
2023/06/29 16:26:06;;;;;;;31.17;15.40;;;;;;;;;;2530712;23;20020;-79
2023/06/29 16:27:27;;;;;;;30.95;15.05;;;;;;;;;;2528488;23;20022;-80
2023/06/29 16:28:48;;;;;;;28.05;14.60;;;;;;;;;;2542621;23;20017;-80
2023/06/29 16:30:12;;;;;;;28.05;14.90;;;;;;;;;;2545538;23;20032;-80
2023/06/29 16:31:33;;;;;;;33.53;15.52;;;;;;;;;;2548113;23;20064;-79
2023/06/29 16:32:54;;;;;;;26.75;15.07;;;;;;;;;;2548656;23;20021;-80
2023/06/29 16:34:15;;;;;;;31.60;16.33;;;;;;;;;;2546813;23;20036;-79
2023/06/29 16:35:35;;;;;;;27.20;13.70;;;;;;;;;;2545234;23;20016;-79
2023/06/29 16:37:00;;;;;;;31.20;15.50;;;;;;;;;;2546913;23;20010;-79
2023/06/29 16:38:24;;;;;;;28.95;14.55;;;;;;;;;;2532733;23;20498;-77
2023/06/29 16:39:57;;;;;;;29.33;14.10;;;;;;;;;;2544250;23;20012;-76
2023/06/29 16:41:18;;;;;;;25.88;13.20;;;;;;;;;;2546039;23;20013;-79
2023/06/29 16:42:39;;;;;;;29.70;14.68;;;;;;;;;;2549675;23;20013;-80
2023/06/29 16:44:00;;;;;;;32.28;15.15;;;;;;;;;;2548155;23;20036;-80
2023/06/29 16:45:21;;;;;;;30.02;14.95;;;;;;;;;;2548282;23;20016;-79
2023/06/29 16:46:42;;;;;;;29.48;13.93;;;;;;;;;;2547573;23;20435;-80
2023/06/29 16:48:03;;;;;;;28.20;13.98;;;;;;;;;;2530395;23;20121;-79
2023/06/29 16:49:25;;;;;;;24.90;13.02;;;;;;;;;;2541965;23;20005;-79
2023/06/29 16:50:46;;;;;;;;;;;;;;;;;;2545246;23;20017;-80
2023/06/29 16:52:07;;;;;;;24.40;12.65;;;;;;;;;;2535854;23;19901;-80
2023/06/29 16:53:28;;;;;;;27.05;12.77;;;;;;;;;;2543126;23;20293;-80
2023/06/29 16:54:48;;;;;;;25.88;12.88;;;;;;;;;;2544186;23;20009;-80
2023/06/29 16:56:09;;;;;;;24.80;12.55;;;;;;;;;;2533681;23;20013;-80
2023/06/29 16:57:30;;;;;;;26.13;12.40;;;;;;;;;;2542673;23;20014;-81
2023/06/29 16:58:51;;;;;;;24.45;12.32;;;;;;;;;;2545912;23;20339;-80
2023/06/29 17:00:12;;;;;;;29.25;12.98;;;;;;;;;;2544103;23;20017;-80
2023/06/29 17:01:33;;;;;;;24.63;12.20;;;;;;;;;;2545368;23;20013;-80
2023/06/29 17:02:54;;;;;;;29.08;12.55;;;;;;;;;;2546691;23;20016;-80
2023/06/29 17:04:17;;;;;;;26.60;13.07;;;;;;;;;;2545592;23;20068;-76
2023/06/29 17:05:38;;;;;;;23.90;12.02;;;;;;;;;;2545888;23;20127;-76
2023/06/29 17:07:00;;;;;;;23.15;12.30;;;;;;;;;;2532874;23;20021;-79
2023/06/29 17:08:21;;;;;;;27.95;13.35;;;;;;;;;;2531661;23;20010;-79
2023/06/29 17:09:41;;;;;;;26.95;12.05;;;;;;;;;;2542317;23;20009;-78
2023/06/29 17:11:02;;;;;;;23.00;11.35;;;;;;;;;;2548224;23;20013;-79
2023/06/29 17:12:23;;;;;;;19.63;10.93;;;;;;;;;;2543538;23;20070;-79
2023/06/29 17:13:45;;;;;;;17.80;9.85;;;;;;;;;;2545624;23;20006;-79
2023/06/29 17:15:06;;;;;;;18.13;9.68;;;;;;;;;;2535201;23;20101;-75
2023/06/29 17:16:27;;;;;;;21.35;9.90;;;;;;;;;;2529744;23;20006;-76
2023/06/29 17:17:48;;;;;;;22.55;11.18;;;;;;;;;;2543469;23;20009;-77
2023/06/29 17:19:08;;;;;;;19.05;11.13;;;;;;;;;;2536182;23;20017;-79
2023/06/29 17:20:29;;;;;;;17.65;10.30;;;;;;;;;;2543705;23;20016;-79
2023/06/29 17:21:50;;;;;;;24.75;11.23;;;;;;;;;;2543378;23;20009;-79
2023/06/29 17:23:11;;;;;;;21.77;10.63;;;;;;;;;;2535366;23;20014;-78
2023/06/29 17:24:32;;;;;;;21.75;12.07;;;;;;;;;;2543049;23;20010;-79
2023/06/29 17:25:53;;;;;;;15.65;9.60;;;;;;;;;;2545406;23;20020;-78
2023/06/29 17:27:14;;;;;;;25.17;12.25;;;;;;;;;;2545768;23;20009;-79
2023/06/29 17:28:35;;;;;;;21.35;10.93;;;;;;;;;;2532570;23;20057;-79
2023/06/29 17:29:55;;;;;;;14.90;9.18;;;;;;;;;;2531687;23;20029;-79
2023/06/29 17:31:16;;;;;;;15.32;8.43;;;;;;;;;;2539455;23;20021;-80
2023/06/29 17:32:37;;;;;;;14.57;8.10;;;;;;;;;;2530922;23;20021;-79
2023/06/29 17:33:58;;;;;;;13.60;7.72;;;;;;;;;;2539115;23;20017;-79
2023/06/29 20:19:59;;;;;;;30.45;8.90;;;;;;;;;;2535415;23;20029;-94
2023/06/29 20:21:50;;;;;;;19.58;4.95;;;;;;;;;;2534755;23;20018;-94
2023/06/29 20:24:35;;;;;;;;;;;;;;;;;;;;;
2023/06/29 20:29:14;;;;;;;12.05;5.80;;;;;;;;;;2502073;23;20018;-94
2023/06/29 20:30:40;;;;;;;7.97;3.97;;;;;;;;;;2520637;23;20007;-94
2023/06/29 20:32:07;;;;;;;11.45;4.60;;;;;;;;;;2530955;23;20379;-93
2023/06/29 20:33:31;;;;;;;14.60;4.60;;;;;;;;;;2523437;23;20435;-94
2023/06/29 20:34:58;;;;;;;11.15;4.20;;;;;;;;;;2532496;23;20494;-93
2023/06/29 20:36:51;;;;;;;14.25;5.25;;;;;;;;;;2521595;23;20055;-95
2023/06/29 20:40:49;;;;;;;;;;;;;;;;;;;;;
2023/06/29 20:42:15;;;;;;;;;;;;;;;;;;2503562;23;20014;-91
2023/06/29 20:44:13;;;;;;;8.60;4.60;;;;;;;;;;2535957;23;19913;-91
2023/06/29 20:45:35;;;;;;;11.65;5.18;;;;;;;;;;2522640;23;20046;-92
2023/06/29 20:47:09;;;;;;;10.52;4.93;;;;;;;;;;2517817;23;20011;-92
2023/06/29 20:48:35;;;;;;;10.50;5.10;;;;;;;;;;2521284;23;20396;-93
2023/06/29 20:50:26;;;;;;;13.45;5.85;;;;;;;;;;2520475;23;20018;-93
2023/06/29 20:52:21;;;;;;;11.27;4.93;;;;;;;;;;2486340;23;20482;-92
2023/06/29 20:54:04;;;;;;;7.55;4.93;;;;;;;;;;2535588;23;20006;-92
2023/06/29 20:56:10;;;;;;;;;;;;;;;;;;;;;
2023/06/29 20:58:23;;;;;;;;;;;;;;;;;;;;;
2023/06/29 21:00:16;;;;;;;;;;;;;;;;;;;;;
2023/06/29 21:03:47;;;;;;;;;;;;;;;;;;;;;
2023/06/29 21:05:45;;;;;;;;;;;;;;;;;;;;;
2023/06/29 21:07:12;;;;;;;10.55;4.63;;;;;;;;;;2533231;23;20014;-93
2023/06/29 21:08:36;;;;;;;9.50;4.28;;;;;;;;;;2545721;23;20009;-93
